Time;durP1;ratioP1;P1;durP2;ratioP2;P2;SDS_P1;SDS_P2;PMS_P1;PMS_P2;Temp;Humidity;BMP_temperature;BMP_pressure;BME280_temperature;BME280_humidity;BME280_pressure;Samples;Min_cycle;Max_cycle;Signal;HPM_P1;HPM_P2
2023/09/06 00:01:10;;;;;;;10.02;7.75;;;;;;;21.55;71.99;100025.81;4842503;29;20090;-42
2023/09/06 00:03:37;;;;;;;7.88;7.03;;;;;;;21.71;70.82;100023.97;4842404;29;20087;-41
2023/09/06 00:06:04;;;;;;;7.97;7.13;;;;;;;21.70;70.76;100017.72;4852446;29;20034;-42
2023/09/06 00:08:33;;;;;;;7.60;6.55;;;;;;;21.61;71.19;100031.00;4860775;29;20033;-41
2023/09/06 00:11:05;;;;;;;7.07;6.30;;;;;;;21.35;71.98;100022.00;4860919;29;20617;-45
2023/09/06 00:13:32;;;;;;;8.57;6.47;;;;;;;21.29;71.35;100026.56;4860505;29;20034;-41
2023/09/06 00:15:58;;;;;;;8.35;6.53;;;;;;;21.68;70.54;100025.28;4860601;29;20478;-41
2023/09/06 00:18:23;;;;;;;8.20;6.13;;;;;;;21.89;70.30;100025.31;4860737;29;20064;-41
2023/09/06 00:20:48;;;;;;;7.00;6.07;;;;;;;22.12;69.01;100030.16;4860976;29;20466;-45
2023/09/06 00:23:15;;;;;;;7.72;5.90;;;;;;;22.32;67.88;100025.81;4860750;29;20126;-42
2023/09/06 00:25:40;;;;;;;9.80;6.18;;;;;;;22.36;67.73;100027.69;4860735;29;20029;-42
2023/09/06 00:28:06;;;;;;;7.55;6.45;;;;;;;22.36;67.61;100026.91;4860351;29;20517;-41
2023/09/06 00:30:33;;;;;;;6.97;6.13;;;;;;;22.25;67.19;100024.19;4860231;29;20505;-41
2023/09/06 00:32:59;;;;;;;8.77;6.07;;;;;;;22.22;67.78;100018.50;4860445;29;20026;-44
2023/09/06 00:35:26;;;;;;;7.93;6.05;;;;;;;22.25;67.36;100013.34;4852314;29;20126;-42
2023/09/06 00:37:52;;;;;;;8.07;5.93;;;;;;;22.37;67.18;100023.09;4841783;29;20042;-42
2023/09/06 00:40:19;;;;;;;9.38;6.00;;;;;;;22.33;67.03;100019.31;4841752;29;20102;-42
2023/09/06 00:42:46;;;;;;;6.78;6.00;;;;;;;22.50;67.02;100016.28;4841851;29;20040;-43
2023/09/06 00:45:12;;;;;;;7.20;5.72;;;;;;;22.42;66.88;100017.66;4841427;29;20026;-42
2023/09/06 00:47:37;;;;;;;7.15;5.95;;;;;;;22.31;67.33;100013.34;4841876;29;20030;-40
2023/09/06 00:50:04;;;;;;;6.93;5.70;;;;;;;22.12;68.03;100011.19;4841672;29;20030;-42
2023/09/06 00:52:30;;;;;;;6.18;5.57;;;;;;;22.20;67.78;100007.94;4841587;29;20127;-42
2023/09/06 00:54:57;;;;;;;6.18;5.05;;;;;;;22.31;67.16;100010.63;4840869;29;20069;-42
2023/09/06 00:57:22;;;;;;;7.40;5.72;;;;;;;22.11;67.48;100006.06;4841613;29;20026;-41
2023/09/06 00:59:50;;;;;;;8.63;5.53;;;;;;;22.29;66.91;100004.69;4841153;29;20056;-41
2023/09/06 01:02:15;;;;;;;6.55;5.47;;;;;;;22.16;67.25;100003.31;4841473;29;20029;-40
2023/09/06 01:04:41;;;;;;;8.38;5.50;;;;;;;22.31;66.94;99999.78;4841355;29;20392;-41
2023/09/06 01:07:09;;;;;;;6.53;5.35;;;;;;;22.13;67.67;100012.00;4841636;29;20029;-41
2023/09/06 01:09:35;;;;;;;7.57;5.30;;;;;;;22.03;67.66;100002.00;4841327;29;20037;-42
2023/09/06 01:12:01;;;;;;;6.10;5.50;;;;;;;22.01;67.75;99991.44;4841331;29;20041;-45
2023/09/06 01:14:26;;;;;;;7.07;5.40;;;;;;;21.87;67.76;100003.91;4841332;29;20025;-42
2023/09/06 01:16:54;;;;;;;6.63;5.03;;;;;;;21.71;68.20;100002.28;4841150;29;20478;-43
2023/09/06 01:19:25;;;;;;;6.28;5.30;;;;;;;21.97;67.52;100006.63;4846765;29;20029;-42
2023/09/06 01:22:32;;;;;;;7.43;5.40;;;;;;;22.10;67.98;100001.69;4857636;29;20036;-42
2023/09/06 01:24:57;;;;;;;8.18;5.60;;;;;;;21.97;67.71;100006.63;4842409;29;20124;-42
2023/09/06 01:27:24;;;;;;;7.53;5.10;;;;;;;22.22;67.45;100010.38;4859263;29;20117;-42
2023/09/06 01:29:49;;;;;;;6.68;5.20;;;;;;;22.13;67.94;100007.41;4858021;29;20232;-42
2023/09/06 01:32:14;;;;;;;6.10;5.30;;;;;;;22.16;67.78;100011.44;4859500;29;20568;-42
2023/09/06 01:34:40;;;;;;;5.93;5.32;;;;;;;22.05;68.32;100006.06;4856874;29;20068;-42
2023/09/06 01:37:05;;;;;;;6.03;5.18;;;;;;;21.95;67.63;99994.41;4840821;29;20049;-43
2023/09/06 01:39:31;;;;;;;8.57;5.25;;;;;;;21.98;68.48;100000.09;4840659;29;20462;-43
2023/09/06 01:41:56;;;;;;;7.82;5.40;;;;;;;22.27;67.60;99998.72;4840377;29;20033;-42
2023/09/06 01:44:21;;;;;;;6.25;5.35;;;;;;;22.26;67.32;100003.34;4840617;29;20456;-42
2023/09/06 01:46:47;;;;;;;5.78;5.18;;;;;;;22.42;66.51;99994.06;4840354;29;20026;-42
2023/09/06 01:49:12;;;;;;;6.10;5.35;;;;;;;22.52;66.33;99993.22;4840263;29;20021;-43
2023/09/06 01:51:37;;;;;;;5.90;4.95;;;;;;;22.47;65.67;99992.44;4840075;29;20117;-43
2023/09/06 01:54:04;;;;;;;6.55;5.10;;;;;;;22.01;67.23;99998.75;4839931;29;20126;-42
2023/09/06 01:56:30;;;;;;;5.78;5.10;;;;;;;22.03;67.17;99997.38;4840024;29;20034;-42
2023/09/06 01:58:55;;;;;;;5.97;5.18;;;;;;;22.17;66.83;100004.94;4839658;29;20110;-41
2023/09/06 02:01:21;;;;;;;6.00;5.13;;;;;;;22.42;65.74;100004.09;4839965;29;20098;-40
2023/09/06 02:03:46;;;;;;;5.00;4.50;;;;;;;22.19;66.76;100006.28;4839841;29;20078;-42
2023/09/06 02:06:12;;;;;;;5.43;4.85;;;;;;;22.21;66.51;100004.13;4839308;29;20025;-41
2023/09/06 02:08:39;;;;;;;7.10;5.45;;;;;;;22.20;66.70;100001.66;4839735;29;20038;-40
2023/09/06 02:11:06;;;;;;;6.05;5.00;;;;;;;22.18;66.93;100004.69;4839920;29;20543;-41
2023/09/06 02:13:32;;;;;;;6.55;4.82;;;;;;;22.59;65.41;99999.16;4858080;29;20025;-42
2023/09/06 02:15:59;;;;;;;6.57;5.05;;;;;;;22.63;65.16;99996.69;4857507;29;20055;-42
2023/09/06 02:18:26;;;;;;;7.35;5.05;;;;;;;22.64;65.29;100006.47;4858042;29;20049;-41
2023/09/06 02:20:54;;;;;;;6.25;5.30;;;;;;;22.60;65.56;100006.22;4858136;29;20057;-40
2023/09/06 02:23:19;;;;;;;5.55;5.00;;;;;;;22.79;64.86;100003.69;4857951;29;20030;-41
2023/09/06 02:25:45;;;;;;;6.03;5.00;;;;;;;22.81;64.79;100011.56;4857730;29;20033;-41
2023/09/06 02:28:10;;;;;;;7.78;5.25;;;;;;;22.95;64.51;100009.84;4858399;29;20037;-43
2023/09/06 02:30:36;;;;;;;5.80;4.82;;;;;;;22.98;64.23;100003.88;4858197;29;20037;-42
2023/09/06 02:33:04;;;;;;;5.85;5.00;;;;;;;23.10;63.93;100010.91;4858432;29;20061;-43
2023/09/06 02:35:30;;;;;;;6.35;5.13;;;;;;;23.16;63.64;100010.56;4858136;29;20040;-41
2023/09/06 02:37:55;;;;;;;6.63;4.75;;;;;;;23.13;63.66;100010.31;4858643;29;20037;-41
2023/09/06 02:40:21;;;;;;;6.65;4.82;;;;;;;23.15;63.83;100002.72;4858780;29;20025;-41
2023/09/06 02:42:48;;;;;;;6.10;4.93;;;;;;;23.18;63.47;100004.88;4859182;29;20132;-43
2023/09/06 02:45:14;;;;;;;6.38;5.10;;;;;;;23.09;63.59;99996.50;4858647;29;20072;-42
2023/09/06 02:47:48;;;;;;;6.60;5.07;;;;;;;23.19;63.64;99995.66;4858637;29;20061;-41
2023/09/06 02:50:23;;;;;;;7.97;5.05;;;;;;;23.09;64.19;99987.56;4858216;29;20184;-43
2023/09/06 02:52:50;;;;;;;5.43;4.63;;;;;;;23.17;63.79;99989.66;4857863;29;20056;-42
2023/09/06 02:55:16;;;;;;;7.50;4.93;;;;;;;23.28;63.41;99985.78;4858012;29;20041;-43
2023/09/06 02:57:43;;;;;;;5.72;5.00;;;;;;;23.19;63.49;99979.38;4858132;29;20070;-41
2023/09/06 03:00:26;;;;;;;5.88;4.50;;;;;;;23.01;64.55;99973.44;4857994;29;20125;-41
2023/09/06 03:03:16;;;;;;;6.22;4.68;;;;;;;22.75;65.05;99977.38;4858569;29;20057;-42
2023/09/06 03:05:42;;;;;;;9.13;5.00;;;;;;;22.86;64.74;99986.31;4858379;29;20536;-42
2023/09/06 03:08:12;;;;;;;5.30;4.63;;;;;;;22.99;64.01;99991.91;4858153;29;20089;-43
2023/09/06 03:10:39;;;;;;;6.63;4.80;;;;;;;22.82;64.85;100002.31;4858193;29;20125;-40
2023/09/06 03:13:05;;;;;;;5.75;5.05;;;;;;;22.86;64.68;99997.16;4858545;29;20060;-43
2023/09/06 03:15:30;;;;;;;6.20;4.80;;;;;;;22.70;65.45;99999.94;4858766;29;20034;-42
2023/09/06 03:17:58;;;;;;;6.85;4.82;;;;;;;22.56;66.28;99999.72;4861565;29;20053;-43
2023/09/06 03:20:43;;;;;;;5.95;4.80;;;;;;;22.35;66.95;100001.69;4854333;29;20041;-42
2023/09/06 03:23:20;;;;;;;6.25;4.82;;;;;;;22.42;67.12;100002.19;4843422;29;20475;-42
2023/09/06 03:25:47;;;;;;;5.60;4.88;;;;;;;22.67;66.09;100005.91;4843908;29;20045;-42
2023/09/06 03:28:20;;;;;;;6.63;5.00;;;;;;;22.53;66.74;100015.72;4845764;29;20056;-44
2023/09/06 03:30:46;;;;;;;6.40;5.15;;;;;;;22.56;66.82;100018.72;4858635;29;20026;-42
2023/09/06 03:33:12;;;;;;;5.57;4.88;;;;;;;22.64;66.54;100022.75;4859024;29;20038;-45
2023/09/06 03:35:37;;;;;;;5.93;4.90;;;;;;;22.70;66.39;100027.06;4861580;29;20389;-41
2023/09/06 03:38:08;;;;;;;5.70;4.97;;;;;;;22.83;65.99;100031.09;4861414;29;20482;-41
2023/09/06 03:40:36;;;;;;;5.35;4.68;;;;;;;22.81;65.18;100033.28;4861603;29;20104;-42
2023/09/06 03:43:04;;;;;;;5.63;4.75;;;;;;;22.91;64.81;100029.69;4853259;29;20065;-41
2023/09/06 03:45:30;;;;;;;5.40;4.50;;;;;;;22.81;65.24;100028.66;4844639;29;20488;-43
2023/09/06 03:47:56;;;;;;;6.63;5.03;;;;;;;22.78;66.03;100026.47;4843002;29;20034;-42
2023/09/06 03:50:21;;;;;;;7.50;5.07;;;;;;;22.68;66.07;100026.53;4843076;29;20026;-44
2023/09/06 03:52:48;;;;;;;7.07;4.63;;;;;;;22.78;65.89;100020.25;4843204;29;20120;-43
2023/09/06 03:55:16;;;;;;;7.05;4.85;;;;;;;22.83;65.69;100022.94;4843209;29;20038;-43
2023/09/06 03:57:41;;;;;;;6.32;5.15;;;;;;;22.91;64.91;100025.06;4843231;29;20582;-44
2023/09/06 04:02:54;;;;;;;6.22;4.95;;;;;;;23.00;64.79;100026.13;4843438;29;20116;-41
2023/09/06 04:05:25;;;;;;;6.15;4.72;;;;;;;22.96;65.08;100025.06;4843476;29;20049;-41
2023/09/06 04:07:58;;;;;;;6.60;4.50;;;;;;;22.85;65.92;100020.75;4842817;29;20034;-41
2023/09/06 04:10:36;;;;;;;7.65;5.00;;;;;;;23.03;64.83;100027.47;4843080;29;20030;-42
2023/09/06 04:13:05;;;;;;;5.85;4.70;;;;;;;22.95;64.86;100031.56;4843227;29;20062;-40
2023/09/06 04:15:34;;;;;;;;;;;;;;;23.15;64.33;100027.13;4843232;29;20034;-42
2023/09/06 04:18:01;;;;;;;6.40;4.30;;;;;;;22.96;64.34;100025.06;4843240;29;19922;-42
2023/09/06 04:20:36;;;;;;;6.28;4.60;;;;;;;23.01;64.07;100035.06;4842863;29;20029;-41
2023/09/06 04:23:06;;;;;;;6.32;4.50;;;;;;;22.82;64.85;100043.00;4842413;29;20394;-41
2023/09/06 04:25:33;;;;;;;5.40;4.40;;;;;;;22.98;64.01;100030.19;4859534;29;20064;-41
2023/09/06 04:28:01;;;;;;;5.78;4.60;;;;;;;23.10;63.65;100041.56;4860144;29;20526;-43
2023/09/06 04:30:28;;;;;;;8.30;4.80;;;;;;;23.09;64.16;100041.84;4860079;29;20030;-41
2023/09/06 04:32:59;;;;;;;8.38;4.78;;;;;;;22.82;64.96;100045.72;4860149;29;20591;-42
2023/09/06 04:35:37;;;;;;;6.07;4.88;;;;;;;22.97;64.49;100042.94;4852272;29;20530;-41
2023/09/06 04:38:02;;;;;;;6.65;4.72;;;;;;;22.89;64.60;100054.38;4841500;29;20382;-40
2023/09/06 04:40:29;;;;;;;7.65;4.78;;;;;;;22.94;64.66;100048.13;4842481;29;20109;-41
2023/09/06 04:42:55;;;;;;;6.18;4.57;;;;;;;22.94;64.73;100053.53;4842599;29;20037;-41
2023/09/06 04:45:20;;;;;;;6.68;4.80;;;;;;;23.00;64.77;100047.81;4842529;29;20465;-42
2023/09/06 04:47:45;;;;;;;7.65;4.78;;;;;;;23.13;64.34;100041.00;4842495;29;20116;-43
2023/09/06 04:50:11;;;;;;;9.95;4.75;;;;;;;23.17;64.16;100050.22;4842180;29;20037;-43
2023/09/06 04:52:45;;;;;;;6.43;4.68;;;;;;;22.98;64.82;100054.59;4842035;29;20026;-41
2023/09/06 04:55:13;;;;;;;8.10;5.07;;;;;;;22.91;64.87;100054.91;4842284;29;20560;-41
2023/09/06 04:57:42;;;;;;;5.47;4.70;;;;;;;23.05;64.79;100052.44;4842255;29;20041;-40
2023/09/06 05:00:23;;;;;;;7.30;6.30;;;;;;;23.27;64.32;100053.97;4842082;29;20062;-41
2023/09/06 05:02:51;;;;;;;9.52;5.78;;;;;;;23.17;65.05;100047.50;4854971;29;20375;-44
2023/09/06 05:05:17;;;;;;;16.58;12.23;;;;;;;23.09;65.01;100050.78;4860631;29;20117;-43
2023/09/06 05:07:45;;;;;;;43.42;30.13;;;;;;;23.18;65.25;100051.03;4849947;29;20038;-41
2023/09/06 05:10:11;;;;;;;10.30;7.53;;;;;;;23.19;64.83;100067.03;4869143;29;20435;-42
2023/09/06 05:12:37;;;;;;;9.60;5.57;;;;;;;23.16;65.21;100061.34;4858713;29;20132;-43
2023/09/06 05:15:04;;;;;;;7.55;5.35;;;;;;;23.33;65.09;100064.50;4841525;29;20509;-43
2023/09/06 05:17:29;;;;;;;6.55;5.40;;;;;;;23.39;65.29;100068.81;4842005;29;20057;-43
2023/09/06 05:19:54;;;;;;;6.90;5.13;;;;;;;23.46;65.01;100073.13;4840332;29;20057;-42
2023/09/06 05:22:22;;;;;;;8.20;5.30;;;;;;;23.39;65.25;100076.94;4841992;29;20057;-41
2023/09/06 05:24:49;;;;;;;7.95;5.82;;;;;;;23.53;64.83;100082.59;4841609;29;20025;-41
2023/09/06 05:27:14;;;;;;;7.28;5.70;;;;;;;23.32;65.61;100084.63;4841431;29;20041;-42
2023/09/06 05:29:40;;;;;;;7.03;5.60;;;;;;;23.43;65.32;100079.91;4841230;29;20033;-42
2023/09/06 05:32:06;;;;;;;11.77;5.28;;;;;;;23.65;64.71;100092.28;4847530;29;20045;-42
2023/09/06 05:34:31;;;;;;;8.10;5.40;;;;;;;23.78;64.12;100092.50;4858504;29;20029;-44
2023/09/06 05:36:57;;;;;;;7.50;5.60;;;;;;;23.86;63.66;100093.78;4841624;29;20025;-43
2023/09/06 05:39:23;;;;;;;6.80;5.15;;;;;;;23.91;63.56;100087.50;4857223;29;20382;-42
2023/09/06 05:41:50;;;;;;;7.57;5.72;;;;;;;23.67;64.53;100099.06;4842016;29;20143;-41
2023/09/06 05:44:16;;;;;;;6.47;5.18;;;;;;;23.54;65.22;100097.78;4841611;29;20033;-45
2023/09/06 05:46:41;;;;;;;8.85;5.82;;;;;;;23.46;65.92;100094.84;4846755;29;20211;-42
2023/09/06 05:49:08;;;;;;;35.33;24.50;;;;;;;23.75;64.29;100089.50;4859548;29;20372;-40
2023/09/06 05:51:33;;;;;;;17.88;12.10;;;;;;;23.82;63.73;100081.88;4858827;29;20068;-41
2023/09/06 05:54:00;;;;;;;11.00;6.43;;;;;;;23.78;63.83;100097.09;4858901;29;20069;-41
2023/09/06 05:56:26;;;;;;;12.27;6.85;;;;;;;23.88;63.41;100098.94;4859634;29;20465;-41
2023/09/06 05:58:51;;;;;;;14.25;9.38;;;;;;;23.98;63.19;100113.25;4859082;29;20129;-41
2023/09/06 06:01:17;;;;;;;8.57;6.20;;;;;;;23.96;63.47;100109.22;4858750;29;20407;-43
2023/09/06 06:03:43;;;;;;;9.35;6.72;;;;;;;23.98;63.61;100117.88;4858739;29;20025;-45
2023/09/06 06:06:10;;;;;;;8.13;5.90;;;;;;;24.00;63.79;100118.41;4859594;29;20119;-40
2023/09/06 06:08:37;;;;;;;7.38;5.90;;;;;;;24.07;63.45;100124.34;4859415;29;20461;-42
2023/09/06 06:11:03;;;;;;;9.40;5.82;;;;;;;24.16;62.82;100127.25;4859338;29;20108;-42
2023/09/06 06:13:29;;;;;;;11.05;6.00;;;;;;;24.23;62.45;100135.09;4859470;29;20027;-43
2023/09/06 06:15:54;;;;;;;8.05;5.60;;;;;;;24.16;63.17;100140.84;4859321;29;20391;-43
2023/09/06 06:18:21;;;;;;;13.70;6.07;;;;;;;24.17;62.57;100140.56;4859365;29;20044;-40
2023/09/06 06:20:46;;;;;;;7.53;5.50;;;;;;;24.10;62.44;100145.50;4859149;29;20037;-41
2023/09/06 06:23:11;;;;;;;10.57;5.68;;;;;;;24.06;62.64;100149.88;4844394;29;20029;-41
2023/09/06 06:25:38;;;;;;;9.45;6.40;;;;;;;24.07;62.52;100148.00;4840902;29;20034;-44
2023/09/06 06:28:04;;;;;;;7.57;5.28;;;;;;;24.13;62.47;100153.09;4840787;29;20036;-42
2023/09/06 06:30:29;;;;;;;8.63;5.43;;;;;;;24.13;61.98;100161.25;4840477;29;20030;-41
2023/09/06 06:32:55;;;;;;;10.93;8.07;;;;;;;24.30;61.47;100154.59;4840619;29;20022;-42
2023/09/06 06:35:20;;;;;;;15.07;9.45;;;;;;;24.32;61.26;100152.41;4840587;29;20144;-43
2023/09/06 06:37:49;;;;;;;9.02;6.88;;;;;;;24.31;61.80;100156.22;4840868;29;20479;-41
2023/09/06 06:40:16;;;;;;;13.55;9.50;;;;;;;24.23;61.64;100156.84;4840829;29;20053;-42
2023/09/06 06:42:42;;;;;;;9.30;5.50;;;;;;;24.46;61.23;100155.28;4840461;29;20395;-43
2023/09/06 06:45:09;;;;;;;6.47;4.78;;;;;;;24.53;60.99;100158.50;4839744;29;20022;-41
2023/09/06 06:47:35;;;;;;;8.85;4.97;;;;;;;24.71;60.62;100170.56;4839547;29;20029;-44
2023/09/06 06:50:03;;;;;;;6.72;5.00;;;;;;;24.72;60.26;100161.31;4840481;29;20470;-43
2023/09/06 06:52:30;;;;;;;9.93;5.37;;;;;;;24.64;60.13;100161.97;4839021;29;20539;-42
2023/09/06 06:54:56;;;;;;;10.93;5.13;;;;;;;24.72;59.68;100170.28;4840445;29;20026;-41
2023/09/06 06:57:22;;;;;;;8.13;5.00;;;;;;;24.89;59.36;100166.31;4840418;29;20371;-43
2023/09/06 06:59:47;;;;;;;6.47;4.72;;;;;;;24.81;59.44;100165.03;4838753;29;20057;-41
2023/09/06 07:02:13;;;;;;;5.68;4.80;;;;;;;25.01;58.32;100168.63;4840438;29;20057;-44
2023/09/06 07:04:39;;;;;;;5.95;4.70;;;;;;;24.68;59.18;100173.88;4840177;29;20021;-41
2023/09/06 07:07:05;;;;;;;23.88;17.88;;;;;;;24.89;59.27;100171.75;4840339;29;20034;-45
2023/09/06 07:09:31;;;;;;;10.57;6.72;;;;;;;24.87;59.16;100169.31;4840303;29;20059;-43
2023/09/06 07:11:57;;;;;;;5.65;4.75;;;;;;;24.83;59.10;100173.72;4839611;29;20090;-42
2023/09/06 07:14:22;;;;;;;7.90;4.70;;;;;;;24.94;59.03;100172.53;4839262;29;20053;-43
2023/09/06 07:16:48;;;;;;;6.40;4.78;;;;;;;24.89;59.01;100167.13;4837969;29;20058;-42
2023/09/06 07:19:13;;;;;;;8.20;5.00;;;;;;;24.80;59.25;100168.03;4839758;29;20044;-42
2023/09/06 07:21:40;;;;;;;12.88;10.30;;;;;;;24.41;60.33;100164.31;4839623;29;20025;-42
2023/09/06 07:24:06;;;;;;;6.40;4.93;;;;;;;24.92;59.21;100165.72;4839844;29;20423;-42
2023/09/06 07:26:31;;;;;;;22.25;14.85;;;;;;;25.20;58.85;100169.50;4839643;29;20053;-43
2023/09/06 07:28:57;;;;;;;12.52;9.88;;;;;;;25.51;57.90;100164.50;4839689;29;20480;-42
2023/09/06 07:31:22;;;;;;;7.30;5.50;;;;;;;25.70;57.41;100163.69;4839745;29;20471;-42
2023/09/06 07:33:48;;;;;;;7.20;5.63;;;;;;;25.31;57.75;100124.72;4839494;29;20030;-41
2023/09/06 07:36:14;;;;;;;7.38;5.10;;;;;;;25.57;57.20;100162.53;4839147;29;20105;-41
2023/09/06 07:38:40;;;;;;;6.30;5.38;;;;;;;25.59;57.19;100160.31;4839348;29;20416;-40
2023/09/06 07:41:07;;;;;;;7.13;5.47;;;;;;;25.05;59.46;100166.94;4839243;29;20463;-43
2023/09/06 07:43:35;;;;;;;6.72;5.75;;;;;;;25.46;57.74;100164.56;4838637;29;20488;-42
2023/09/06 07:46:02;;;;;;;6.57;5.53;;;;;;;25.12;58.84;100160.06;4838801;29;20093;-42
2023/09/06 07:48:30;;;;;;;7.43;5.65;;;;;;;25.13;58.74;100172.59;4839209;29;20032;-45
2023/09/06 07:50:56;;;;;;;9.35;5.80;;;;;;;25.08;59.02;100172.63;4839225;29;20543;-41
2023/09/06 07:53:23;;;;;;;7.10;5.30;;;;;;;25.31;58.00;100162.03;4839253;29;20094;-43
2023/09/06 07:55:49;;;;;;;8.18;5.97;;;;;;;25.47;57.74;100168.91;4838717;29;20037;-43
2023/09/06 07:58:15;;;;;;;8.85;5.78;;;;;;;25.39;58.39;100169.56;4838672;29;20042;-42
2023/09/06 08:00:42;;;;;;;7.70;5.30;;;;;;;25.52;57.29;100166.13;4838299;29;20041;-41
2023/09/06 08:03:08;;;;;;;9.18;5.07;;;;;;;25.68;57.55;100168.63;4838466;29;20034;-42
2023/09/06 08:05:37;;;;;;;7.75;4.80;;;;;;;26.09;56.56;100165.34;4841648;29;20034;-42
2023/09/06 08:08:09;;;;;;;6.43;5.10;;;;;;;26.22;56.06;100169.22;4841680;29;20045;-43
2023/09/06 08:10:35;;;;;;;9.35;5.30;;;;;;;26.36;55.35;100178.25;4841846;29;20036;-42
2023/09/06 08:13:03;;;;;;;8.55;5.28;;;;;;;26.47;55.35;100168.78;4841809;29;20037;-43
2023/09/06 08:15:32;;;;;;;8.13;5.45;;;;;;;26.60;55.14;100167.25;4841567;29;20026;-43
2023/09/06 08:17:57;;;;;;;7.20;5.85;;;;;;;26.30;55.94;100166.63;4841825;29;20034;-42
2023/09/06 08:20:23;;;;;;;6.53;5.30;;;;;;;26.18;56.00;100163.56;4841382;29;20328;-42
2023/09/06 08:22:48;;;;;;;7.38;5.00;;;;;;;25.82;56.42;100161.34;4841522;29;20061;-43
2023/09/06 08:25:14;;;;;;;8.63;5.40;;;;;;;26.04;55.80;100160.75;4841754;29;20026;-42
2023/09/06 08:27:41;;;;;;;7.22;5.45;;;;;;;25.59;56.82;100157.59;4841642;29;20134;-43
2023/09/06 08:30:11;;;;;;;9.07;5.22;;;;;;;25.88;55.57;100157.44;4841608;29;20141;-43
2023/09/06 08:32:40;;;;;;;8.90;4.72;;;;;;;26.02;55.55;100162.97;4841173;29;20045;-43
2023/09/06 08:35:07;;;;;;;8.48;5.28;;;;;;;26.24;55.09;100165.09;4840967;29;20118;-45
2023/09/06 08:37:36;;;;;;;7.63;4.95;;;;;;;26.69;54.04;100170.06;4841121;29;20379;-42
2023/09/06 08:40:05;;;;;;;8.27;5.32;;;;;;;26.66;54.29;100168.75;4841241;29;20406;-42
2023/09/06 08:42:35;;;;;;;8.23;5.63;;;;;;;26.84;53.97;100172.50;4841147;29;20030;-41
2023/09/06 08:45:02;;;;;;;7.50;4.95;;;;;;;26.91;53.75;100158.47;4840948;29;20402;-43
2023/09/06 08:47:28;;;;;;;8.25;5.35;;;;;;;27.16;53.18;100167.28;4841370;29;20440;-43
2023/09/06 08:49:54;;;;;;;7.75;4.70;;;;;;;26.95;53.17;100170.41;4841871;29;20026;-43
2023/09/06 08:52:21;;;;;;;7.32;4.75;;;;;;;26.77;53.31;100174.84;4841721;29;20030;-43
2023/09/06 08:54:48;;;;;;;9.90;5.35;;;;;;;26.16;55.06;100163.06;4841324;29;20070;-44
2023/09/06 08:57:14;;;;;;;11.50;4.95;;;;;;;26.32;54.05;100171.78;4841654;29;20029;-42
2023/09/06 08:59:40;;;;;;;9.48;5.10;;;;;;;26.86;52.95;100167.56;4841632;29;20089;-43
2023/09/06 09:02:10;;;;;;;7.85;5.20;;;;;;;27.08;52.55;100168.81;4841638;29;20452;-43
2023/09/06 09:04:41;;;;;;;9.40;5.28;;;;;;;26.86;52.82;100164.81;4840166;29;20090;-42
2023/09/06 09:07:11;;;;;;;8.60;5.47;;;;;;;27.22;53.06;100160.59;4841552;29;20025;-42
2023/09/06 09:09:55;;;;;;;6.97;5.10;;;;;;;27.24;52.88;100164.63;4841704;29;20053;-42
2023/09/06 09:12:25;;;;;;;7.25;5.40;;;;;;;27.08;52.86;100168.81;4841307;29;20085;-42
2023/09/06 09:14:51;;;;;;;7.45;5.10;;;;;;;27.56;51.32;100176.56;4841466;29;20034;-42
2023/09/06 09:17:20;;;;;;;7.55;5.57;;;;;;;27.81;50.60;100174.38;4841380;29;20037;-41
2023/09/06 09:19:53;;;;;;;7.80;4.63;;;;;;;27.36;51.58;100172.34;4841509;29;20109;-43
2023/09/06 09:22:25;;;;;;;5.72;4.93;;;;;;;27.73;51.42;100175.91;4841161;29;20377;-43
2023/09/06 09:24:58;;;;;;;8.73;4.90;;;;;;;27.91;50.62;100167.88;4841144;29;20090;-43
2023/09/06 09:27:27;;;;;;;6.53;4.97;;;;;;;28.08;49.85;100166.13;4841005;29;20502;-42
2023/09/06 09:29:53;;;;;;;6.60;4.90;;;;;;;28.35;49.21;100160.78;4841249;29;20032;-42
2023/09/06 09:32:18;;;;;;;8.68;5.43;;;;;;;28.39;49.72;100168.09;4841025;29;20109;-43
2023/09/06 09:34:44;;;;;;;7.53;5.43;;;;;;;28.69;47.87;100159.41;4840777;29;20029;-43
2023/09/06 09:37:10;;;;;;;7.82;5.15;;;;;;;28.70;47.26;100164.56;4840864;29;20032;-43
2023/09/06 09:39:37;;;;;;;6.88;5.40;;;;;;;29.02;46.06;100166.16;4840922;29;20117;-43
2023/09/06 09:42:04;;;;;;;7.60;4.90;;;;;;;29.41;46.21;100158.22;4840419;29;20034;-41
2023/09/06 09:44:30;;;;;;;8.02;5.10;;;;;;;29.62;45.29;100159.22;4839138;29;20018;-43
2023/09/06 09:46:58;;;;;;;7.90;5.10;;;;;;;30.18;45.18;100156.66;4840246;29;20373;-43
2023/09/06 09:49:26;;;;;;;8.35;5.38;;;;;;;30.49;43.79;100150.16;4840555;29;20030;-48
2023/09/06 09:51:51;;;;;;;7.55;4.90;;;;;;;30.59;42.01;100159.97;4840499;29;20030;-42
2023/09/06 09:54:19;;;;;;;8.13;4.70;;;;;;;30.97;39.99;100146.25;4840983;29;20033;-43
2023/09/06 09:56:58;;;;;;;9.53;4.83;;;;;;;31.08;39.85;100146.69;4840655;29;20025;-44
2023/09/06 09:59:26;;;;;;;9.68;4.55;;;;;;;31.22;39.82;100151.16;4840128;29;20419;-42
2023/09/06 10:01:52;;;;;;;7.80;4.90;;;;;;;31.78;40.49;100151.75;4840266;29;20041;-43
2023/09/06 10:04:19;;;;;;;5.13;4.63;;;;;;;31.75;39.80;100147.72;4840288;29;20026;-44
2023/09/06 10:06:46;;;;;;;8.57;4.85;;;;;;;32.37;39.04;100147.16;4840163;29;20037;-45
2023/09/06 10:09:14;;;;;;;7.15;4.95;;;;;;;32.54;36.22;100141.47;4840171;29;20126;-46
2023/09/06 10:11:40;;;;;;;7.00;5.30;;;;;;;32.71;36.41;100144.03;4838837;29;20022;-42
2023/09/06 10:14:06;;;;;;;12.70;9.20;;;;;;;32.83;34.77;100134.19;4840193;29;20109;-46
2023/09/06 10:16:32;;;;;;;7.45;4.65;;;;;;;33.30;34.33;100128.16;4840272;29;20104;-46
2023/09/06 10:18:58;;;;;;;7.00;5.20;;;;;;;33.56;34.70;100127.75;4839877;29;20047;-43
2023/09/06 10:21:26;;;;;;;7.97;4.78;;;;;;;33.87;34.58;100127.13;4839893;29;20030;-45
2023/09/06 10:23:51;;;;;;;7.43;4.80;;;;;;;34.17;34.16;100124.00;4839447;29;20407;-42
2023/09/06 10:26:29;;;;;;;6.47;4.40;;;;;;;34.03;31.50;100118.06;4839016;29;20037;-46
2023/09/06 10:28:59;;;;;;;5.05;4.50;;;;;;;33.34;32.15;100118.06;4839740;29;20033;-44
2023/09/06 10:31:35;;;;;;;5.15;4.40;;;;;;;32.70;32.49;100127.84;4839393;29;20037;-45
2023/09/06 10:34:01;;;;;;;6.55;4.65;;;;;;;32.54;33.06;100122.19;4840178;29;20026;-42
2023/09/06 10:36:27;;;;;;;6.38;4.65;;;;;;;32.91;33.67;100128.53;4839753;29;20061;-43
2023/09/06 10:38:53;;;;;;;8.07;4.97;;;;;;;32.45;34.51;100129.75;4839623;29;20435;-42
2023/09/06 10:41:20;;;;;;;6.90;4.75;;;;;;;32.46;34.94;100123.91;4839215;29;20034;-42
2023/09/06 10:43:48;;;;;;;7.18;4.57;;;;;;;32.92;34.99;100121.09;4839253;29;20022;-43
2023/09/06 10:46:24;;;;;;;7.05;4.85;;;;;;;32.66;33.27;100132.44;4838819;29;20038;-42
2023/09/06 10:49:19;;;;;;;6.07;4.72;;;;;;;32.17;35.33;100122.09;4839101;29;20062;-44
2023/09/06 10:52:06;;;;;;;6.45;5.07;;;;;;;32.70;35.09;100116.81;4838614;29;20029;-43
2023/09/06 10:54:40;;;;;;;6.80;4.82;;;;;;;32.86;35.45;100105.91;4839491;29;20082;-43
2023/09/06 10:57:15;;;;;;;6.93;4.80;;;;;;;33.37;34.07;100105.53;4838612;29;20030;-44
2023/09/06 10:59:55;;;;;;;5.22;4.35;;;;;;;33.41;33.00;100103.69;4839307;29;20140;-43
2023/09/06 11:02:21;;;;;;;5.55;4.20;;;;;;;33.81;32.55;100100.91;4850336;29;20112;-44
2023/09/06 11:04:47;;;;;;;5.00;4.45;;;;;;;33.35;32.72;100096.81;4842041;29;20105;-43
2023/09/06 11:07:13;;;;;;;6.97;4.57;;;;;;;31.60;35.37;100101.56;4839861;29;20034;-44
2023/09/06 11:09:43;;;;;;;5.30;4.50;;;;;;;30.98;35.59;100097.63;4839583;29;20030;-42
2023/09/06 11:12:11;;;;;;;5.88;4.60;;;;;;;31.54;35.58;100095.47;4840036;29;20375;-43
2023/09/06 11:14:36;;;;;;;6.75;4.93;;;;;;;30.84;36.44;100097.81;4840474;29;20152;-43
2023/09/06 11:17:02;;;;;;;6.22;4.60;;;;;;;31.29;35.52;100085.47;4850999;29;20511;-42
2023/09/06 11:19:30;;;;;;;6.18;4.50;;;;;;;30.53;36.74;100081.66;4857972;29;20037;-42
2023/09/06 11:22:09;;;;;;;6.00;5.18;;;;;;;30.06;37.89;100085.16;4858215;29;20028;-42
2023/09/06 11:24:35;;;;;;;7.85;4.65;;;;;;;30.49;37.22;100072.47;4857873;29;20097;-42
2023/09/06 11:27:21;;;;;;;6.07;5.00;;;;;;;30.43;36.77;100060.88;4857424;29;20025;-42
2023/09/06 11:29:56;;;;;;;6.13;4.90;;;;;;;30.42;37.53;100069.44;4857156;29;20034;-43